Old Oraibi, Arizona
Current Conditions -  °F | °C
As of 2:56 PM on Monday 20 Oct 2014 (Local Time) from KINW Reporting Station
Clear Clear  
Wind Chill: 74°   Ceiling: Unl
Heat Index: 74°   Visibility: 10mi
Dew Point: 41°   Wind: 10mph
Humidity: 30%   Direction: 80°E
Pressure: 30.06"   Gusts: NA
Location:  35.8773°N, 110.619°W
Report Text: KINW 202156Z AUTO 08009KT 10SM CLR 23/05 A3006 RMK AO2 SLP129 T02330050
Loading
Personal Weather Stations






























Interactive Weather Map
Tropical Storm Tracking
New forecast layout! Learn more

10-Day Weather Forecast

Advertisements
Track Severe Weather on mobile